Time;durP1;ratioP1;P1;durP2;ratioP2;P2;SDS_P1;SDS_P2;PMS_P1;PMS_P2;Temp;Humidity;BMP_temperature;BMP_pressure;BME280_temperature;BME280_humidity;BME280_pressure;Samples;Min_cycle;Max_cycle;Signal;HPM_P1;HPM_P2
2023/09/26 00:00:20;;;;;;;11.95;7.15;;;10.20;99.90;;;;;;5051278;28;20036;-68
2023/09/26 00:02:47;;;;;;;15.30;7.32;;;10.10;99.90;;;;;;5050605;28;20028;-66
2023/09/26 00:05:14;;;;;;;11.98;7.00;;;10.00;99.90;;;;;;5051518;28;20044;-68
2023/09/26 00:07:40;;;;;;;13.07;6.93;;;9.90;99.90;;;;;;5050774;28;20082;-68
2023/09/26 00:10:07;;;;;;;12.25;6.70;;;9.90;99.90;;;;;;5050729;28;20550;-68
2023/09/26 00:12:33;;;;;;;10.70;6.75;;;9.90;99.90;;;;;;5050965;28;20044;-67
2023/09/26 00:15:00;;;;;;;13.68;7.15;;;9.90;99.90;;;;;;5031893;28;20029;-67
2023/09/26 00:17:26;;;;;;;12.57;7.50;;;9.90;99.90;;;;;;5031295;28;20065;-67
2023/09/26 00:19:51;;;;;;;11.88;7.22;;;9.70;99.90;;;;;;5029722;28;20061;-67
2023/09/26 00:22:17;;;;;;;12.55;7.40;;;9.70;99.90;;;;;;5064821;28;20048;-67
2023/09/26 00:24:43;;;;;;;11.45;6.80;;;9.60;99.90;;;;;;5055861;28;20179;-67
2023/09/26 00:27:09;;;;;;;17.50;7.65;;;9.60;99.90;;;;;;5049869;28;20029;-68
2023/09/26 00:29:34;;;;;;;16.33;8.30;;;9.60;99.90;;;;;;5031718;28;20107;-67
2023/09/26 00:32:00;;;;;;;12.43;7.35;;;9.60;99.90;;;;;;5045816;28;20034;-67
2023/09/26 00:34:26;;;;;;;13.65;7.85;;;9.60;99.90;;;;;;5030567;28;20477;-67
2023/09/26 00:36:51;;;;;;;12.57;7.63;;;9.60;99.90;;;;;;5048398;28;20040;-67
2023/09/26 00:39:17;;;;;;;12.27;7.82;;;9.60;99.90;;;;;;5051128;28;20123;-68
2023/09/26 00:41:43;;;;;;;15.55;8.55;;;9.50;99.90;;;;;;5038729;28;20036;-67
2023/09/26 00:44:11;;;;;;;13.63;8.00;;;9.50;99.90;;;;;;5050821;28;20032;-67
2023/09/26 00:46:38;;;;;;;14.70;8.10;;;9.40;99.90;;;;;;5050229;28;20074;-68
2023/09/26 00:49:04;;;;;;;12.80;7.85;;;9.30;99.90;;;;;;5050546;28;20385;-67
2023/09/26 00:51:31;;;;;;;13.38;8.13;;;9.30;99.90;;;;;;5060449;28;20056;-67
2023/09/26 00:53:57;;;;;;;13.10;8.02;;;9.40;99.90;;;;;;5043752;28;20056;-67
2023/09/26 00:56:24;;;;;;;13.30;8.02;;;9.30;99.90;;;;;;5044786;28;20073;-67
2023/09/26 00:58:51;;;;;;;14.45;7.50;;;9.30;99.90;;;;;;5029697;28;20123;-67
2023/09/26 01:01:21;;;;;;;14.50;8.20;;;9.40;99.90;;;;;;5031129;28;20052;-67
2023/09/26 01:03:47;;;;;;;13.68;7.93;;;9.40;99.90;;;;;;5049011;28;20033;-67
2023/09/26 01:06:12;;;;;;;12.60;7.47;;;9.40;99.90;;;;;;5048593;28;20067;-67
2023/09/26 01:08:38;;;;;;;14.30;8.32;;;9.40;99.90;;;;;;5049755;28;20079;-67
2023/09/26 01:11:05;;;;;;;13.15;8.02;;;9.40;99.90;;;;;;5044490;28;20026;-67
2023/09/26 01:13:30;;;;;;;11.65;7.18;;;9.30;99.90;;;;;;5050846;28;20035;-68
2023/09/26 01:15:56;;;;;;;14.25;8.15;;;9.20;99.90;;;;;;5035286;28;20096;-68
2023/09/26 01:18:23;;;;;;;14.00;7.88;;;9.20;99.90;;;;;;5049897;28;20036;-67
2023/09/26 01:20:50;;;;;;;12.52;7.20;;;9.10;99.90;;;;;;5053763;28;20111;-67
2023/09/26 01:23:18;;;;;;;12.10;7.07;;;9.00;99.90;;;;;;5062510;28;20051;-67
2023/09/26 01:25:44;;;;;;;15.48;7.80;;;9.00;99.90;;;;;;5047831;28;20021;-68
2023/09/26 01:28:13;;;;;;;15.57;7.90;;;8.90;99.90;;;;;;5049846;28;20074;-68
2023/09/26 01:30:39;;;;;;;13.27;7.88;;;8.90;99.90;;;;;;5043289;28;20545;-68
2023/09/26 01:33:16;;;;;;;16.33;7.93;;;8.90;99.90;;;;;;5042871;28;20047;-66
2023/09/26 01:35:43;;;;;;;13.27;7.72;;;8.90;99.90;;;;;;5049159;28;20060;-67
2023/09/26 01:38:09;;;;;;;16.00;8.10;;;8.90;99.90;;;;;;5049460;28;20531;-67
2023/09/26 01:40:35;;;;;;;14.43;7.85;;;8.90;99.90;;;;;;5049297;28;20054;-66
2023/09/26 01:43:00;;;;;;;14.15;7.97;;;8.90;99.90;;;;;;5048642;28;20159;-67
2023/09/26 01:45:26;;;;;;;12.93;7.65;;;8.80;99.90;;;;;;5043656;28;20370;-66
2023/09/26 01:47:52;;;;;;;17.13;7.38;;;8.80;99.90;;;;;;5028932;28;20045;-66
2023/09/26 01:50:19;;;;;;;14.32;7.68;;;8.80;99.90;;;;;;5040184;28;20057;-68
2023/09/26 01:52:46;;;;;;;13.68;7.65;;;8.80;99.90;;;;;;5068674;28;20067;-68
2023/09/26 01:55:19;;;;;;;12.57;7.40;;;8.80;99.90;;;;;;5069334;28;20033;-67
2023/09/26 01:57:45;;;;;;;14.50;7.63;;;8.80;99.90;;;;;;5068550;28;20055;-67
2023/09/26 02:00:12;;;;;;;12.30;7.03;;;8.80;99.90;;;;;;5057709;28;20063;-67
2023/09/26 02:02:48;;;;;;;14.80;8.75;;;8.80;99.90;;;;;;5029227;28;20049;-67
2023/09/26 02:05:17;;;;;;;13.02;6.50;;;8.80;99.90;;;;;;5041059;28;20060;-66
2023/09/26 02:07:43;;;;;;;14.63;7.85;;;8.80;99.90;;;;;;5048419;28;20032;-66
2023/09/26 02:10:09;;;;;;;12.85;7.53;;;8.80;99.90;;;;;;5049111;28;20028;-67
2023/09/26 02:12:39;;;;;;;15.73;7.53;;;8.70;99.90;;;;;;5047179;28;20380;-66
2023/09/26 02:15:08;;;;;;;14.52;7.80;;;8.70;99.90;;;;;;5048139;28;20024;-67
2023/09/26 02:17:36;;;;;;;17.85;8.05;;;8.70;99.90;;;;;;5049071;28;20052;-67
2023/09/26 02:20:08;;;;;;;15.40;8.20;;;8.70;99.90;;;;;;5047190;28;20021;-67
2023/09/26 02:22:35;;;;;;;15.23;8.40;;;8.80;99.90;;;;;;5042353;28;20029;-67
2023/09/26 02:25:01;;;;;;;14.18;8.23;;;8.70;99.90;;;;;;5027863;28;20163;-67
2023/09/26 02:27:26;;;;;;;14.93;8.32;;;8.70;99.90;;;;;;5028853;28;20514;-67
2023/09/26 02:29:52;;;;;;;14.60;7.45;;;8.60;99.90;;;;;;5036059;28;20131;-68
2023/09/26 02:32:18;;;;;;;13.52;7.75;;;8.50;99.90;;;;;;5046996;28;20037;-67
2023/09/26 02:34:44;;;;;;;13.85;7.93;;;8.50;99.90;;;;;;5047615;28;20454;-68
2023/09/26 02:37:10;;;;;;;14.45;7.97;;;8.50;99.90;;;;;;5048443;28;20171;-67
2023/09/26 02:39:36;;;;;;;14.13;8.23;;;8.50;99.90;;;;;;5048952;28;20235;-67
2023/09/26 02:42:01;;;;;;;12.65;7.43;;;8.50;99.90;;;;;;5035858;28;20483;-67
2023/09/26 02:44:27;;;;;;;11.40;7.05;;;8.50;99.90;;;;;;5034370;28;20037;-67
2023/09/26 02:46:53;;;;;;;12.90;7.28;;;8.50;99.90;;;;;;5047813;28;20033;-68
2023/09/26 02:49:18;;;;;;;11.85;7.18;;;8.50;99.90;;;;;;5047629;28;20157;-68
2023/09/26 02:51:44;;;;;;;14.27;6.93;;;8.50;99.90;;;;;;5048058;28;20049;-66
2023/09/26 02:54:11;;;;;;;14.20;7.07;;;8.40;99.90;;;;;;5048135;28;20770;-67
2023/09/26 02:56:36;;;;;;;11.35;7.25;;;8.40;99.90;;;;;;5048808;28;20114;-67
2023/09/26 02:59:02;;;;;;;13.32;6.88;;;8.40;99.90;;;;;;5034486;28;20032;-67
2023/09/26 03:01:27;;;;;;;13.35;7.30;;;8.40;99.90;;;;;;5039057;28;20034;-67
2023/09/26 03:03:54;;;;;;;16.15;7.28;;;8.30;99.90;;;;;;5047495;28;20047;-66
2023/09/26 03:06:20;;;;;;;13.70;7.18;;;8.30;99.90;;;;;;5048151;28;20115;-68
2023/09/26 03:08:45;;;;;;;15.63;7.63;;;8.30;99.90;;;;;;5030860;28;20125;-67
2023/09/26 03:11:11;;;;;;;16.23;8.00;;;8.30;99.90;;;;;;5028340;28;20029;-68
2023/09/26 03:13:37;;;;;;;17.60;8.00;;;8.30;99.90;;;;;;5038871;28;20049;-67
2023/09/26 03:16:04;;;;;;;12.88;7.85;;;8.30;99.90;;;;;;5041384;28;20109;-67
2023/09/26 03:18:30;;;;;;;13.90;7.97;;;8.30;99.90;;;;;;5048195;28;20606;-68
2023/09/26 03:20:56;;;;;;;13.43;7.28;;;8.30;99.90;;;;;;5052865;28;20024;-67
2023/09/26 03:23:24;;;;;;;13.38;7.55;;;8.30;99.90;;;;;;5038324;28;20095;-67
2023/09/26 03:25:49;;;;;;;14.82;7.95;;;8.30;99.90;;;;;;5027278;28;20458;-68
2023/09/26 03:28:16;;;;;;;12.02;7.28;;;8.20;99.90;;;;;;5028101;28;20022;-67
2023/09/26 03:30:44;;;;;;;12.73;7.07;;;8.20;99.90;;;;;;5029083;28;20080;-68
2023/09/26 03:33:10;;;;;;;13.77;7.05;;;8.20;99.90;;;;;;5027592;28;20033;-68
2023/09/26 03:35:36;;;;;;;13.70;7.50;;;8.20;99.90;;;;;;5047677;28;20025;-68
2023/09/26 03:38:01;;;;;;;15.68;7.68;;;8.10;99.90;;;;;;5046971;28;20423;-68
2023/09/26 03:40:27;;;;;;;14.55;7.60;;;8.10;99.90;;;;;;5045892;28;20033;-68
2023/09/26 03:42:53;;;;;;;13.38;6.93;;;8.00;99.90;;;;;;5027362;28;20033;-68
2023/09/26 03:45:18;;;;;;;13.75;7.53;;;8.00;99.90;;;;;;5028059;28;20045;-68
2023/09/26 03:47:44;;;;;;;14.13;7.68;;;8.00;99.90;;;;;;5028002;28;20070;-68
2023/09/26 03:50:10;;;;;;;14.85;7.47;;;7.90;99.90;;;;;;5026872;28;20075;-68
2023/09/26 03:52:35;;;;;;;11.43;6.95;;;7.80;99.90;;;;;;5052558;28;20082;-68
2023/09/26 03:55:02;;;;;;;12.30;6.68;;;7.70;99.90;;;;;;5047557;28;20036;-68
2023/09/26 03:57:30;;;;;;;11.23;6.38;;;7.70;99.90;;;;;;5031651;28;20038;-67
2023/09/26 03:59:56;;;;;;;13.48;7.30;;;7.60;99.90;;;;;;5029550;28;20163;-67
2023/09/26 04:02:22;;;;;;;13.13;7.75;;;7.70;99.90;;;;;;5050203;28;20159;-67
2023/09/26 04:04:47;;;;;;;14.63;7.50;;;7.70;99.90;;;;;;5050990;28;20032;-67
2023/09/26 04:07:14;;;;;;;13.68;7.57;;;7.60;99.90;;;;;;5044692;28;20036;-67
2023/09/26 04:09:40;;;;;;;15.07;7.65;;;7.60;99.90;;;;;;5048082;28;20033;-66
2023/09/26 04:12:06;;;;;;;12.63;7.75;;;7.60;99.90;;;;;;5046383;28;20025;-67
2023/09/26 04:14:32;;;;;;;11.63;7.30;;;7.60;99.90;;;;;;5031329;28;20117;-68
2023/09/26 04:16:58;;;;;;;14.05;8.52;;;7.60;99.90;;;;;;5030522;28;20037;-67
2023/09/26 04:19:23;;;;;;;13.02;7.22;;;7.60;99.90;;;;;;5031065;28;20079;-67
2023/09/26 04:21:52;;;;;;;16.45;7.90;;;7.60;99.90;;;;;;5044848;28;20040;-67
2023/09/26 04:24:18;;;;;;;14.43;8.13;;;7.60;99.90;;;;;;5051083;28;20115;-67
2023/09/26 04:26:44;;;;;;;14.57;8.20;;;7.60;99.90;;;;;;5051058;28;20100;-67
2023/09/26 04:29:10;;;;;;;14.63;7.47;;;7.60;99.90;;;;;;5050197;28;20231;-68
2023/09/26 04:31:36;;;;;;;12.15;7.20;;;7.60;99.90;;;;;;5045991;28;20386;-67
2023/09/26 04:34:01;;;;;;;14.95;7.53;;;7.50;99.90;;;;;;5031986;28;20029;-68
2023/09/26 04:36:29;;;;;;;15.18;7.43;;;7.50;99.90;;;;;;5040725;28;20037;-68
2023/09/26 04:38:54;;;;;;;13.70;7.10;;;7.50;99.90;;;;;;5029955;28;20045;-68
2023/09/26 04:41:20;;;;;;;14.88;7.30;;;7.40;99.90;;;;;;5039605;28;20029;-68
2023/09/26 04:43:46;;;;;;;13.57;7.38;;;7.40;99.90;;;;;;5032644;28;20036;-68
2023/09/26 04:46:15;;;;;;;16.52;7.70;;;7.50;99.90;;;;;;5029894;28;20648;-68
2023/09/26 04:48:43;;;;;;;14.57;7.70;;;7.60;99.90;;;;;;5030598;28;20034;-70
2023/09/26 04:51:11;;;;;;;15.18;7.93;;;7.60;99.90;;;;;;5038778;28;20810;-68
2023/09/26 04:53:37;;;;;;;15.38;7.82;;;7.60;99.90;;;;;;5044399;28;20118;-67
2023/09/26 04:56:04;;;;;;;15.77;7.97;;;7.60;99.90;;;;;;5044666;28;20519;-68
2023/09/26 04:58:30;;;;;;;15.18;7.47;;;7.40;99.90;;;;;;5033292;28;20037;-68
2023/09/26 05:00:57;;;;;;;14.43;7.45;;;7.30;99.90;;;;;;5032166;28;20043;-68
2023/09/26 05:03:23;;;;;;;13.52;7.25;;;7.30;99.90;;;;;;5036549;28;20029;-67
2023/09/26 05:05:49;;;;;;;12.23;6.80;;;7.30;99.90;;;;;;5039437;28;20033;-67
2023/09/26 05:08:15;;;;;;;14.10;7.53;;;7.30;99.90;;;;;;5029389;28;20116;-67
2023/09/26 05:10:41;;;;;;;16.83;7.78;;;7.20;99.90;;;;;;5047693;28;20111;-66
2023/09/26 05:13:07;;;;;;;14.30;7.63;;;7.20;99.90;;;;;;5051018;28;20490;-69
2023/09/26 05:15:34;;;;;;;13.48;7.75;;;7.20;99.90;;;;;;5038495;28;20033;-66
2023/09/26 05:18:01;;;;;;;15.40;8.23;;;7.30;99.90;;;;;;5049295;28;20416;-67
2023/09/26 05:20:26;;;;;;;12.95;7.75;;;7.20;99.90;;;;;;5048868;28;20041;-68
2023/09/26 05:22:52;;;;;;;13.93;7.30;;;7.20;99.90;;;;;;5051407;28;20095;-69
2023/09/26 05:25:18;;;;;;;11.68;6.97;;;7.20;99.90;;;;;;5048524;28;20064;-68
2023/09/26 05:27:44;;;;;;;9.88;6.32;;;7.20;99.90;;;;;;5029744;28;20026;-66
2023/09/26 05:30:11;;;;;;;14.75;7.20;;;7.20;99.90;;;;;;5028668;28;20363;-67
2023/09/26 05:32:38;;;;;;;12.65;6.97;;;7.20;99.90;;;;;;5049179;28;20144;-66
2023/09/26 05:35:06;;;;;;;11.95;6.70;;;7.20;99.90;;;;;;5044283;28;20025;-67
2023/09/26 05:37:32;;;;;;;14.10;7.13;;;7.30;99.90;;;;;;5032443;28;20079;-67
2023/09/26 05:39:57;;;;;;;11.93;6.90;;;7.30;99.90;;;;;;5048280;28;20059;-67
2023/09/26 05:42:23;;;;;;;13.82;6.70;;;7.20;99.90;;;;;;5031299;28;20543;-67
2023/09/26 05:44:49;;;;;;;13.50;7.07;;;7.20;99.90;;;;;;5038303;28;20425;-67
2023/09/26 05:47:14;;;;;;;15.93;7.28;;;7.20;99.90;;;;;;5029244;28;20064;-64
2023/09/26 05:49:40;;;;;;;12.32;7.45;;;7.30;99.90;;;;;;5031922;28;20052;-67
2023/09/26 05:52:06;;;;;;;17.33;8.20;;;7.40;99.90;;;;;;5041920;28;20045;-67
2023/09/26 05:54:32;;;;;;;11.57;7.03;;;7.50;99.90;;;;;;5032071;28;20045;-65
2023/09/26 05:56:58;;;;;;;12.30;7.15;;;7.70;99.90;;;;;;5032420;28;20446;-66
2023/09/26 05:59:24;;;;;;;15.48;7.55;;;7.60;99.90;;;;;;5044309;28;20021;-65
2023/09/26 06:01:49;;;;;;;16.10;7.57;;;7.60;99.90;;;;;;5039095;28;20426;-66
2023/09/26 06:04:16;;;;;;;13.23;7.80;;;7.60;99.90;;;;;;5045247;28;20778;-65
2023/09/26 06:06:42;;;;;;;16.05;8.65;;;7.70;99.90;;;;;;5040694;28;20037;-66
2023/09/26 06:09:08;;;;;;;14.77;8.25;;;7.70;99.90;;;;;;5030498;28;20431;-66
2023/09/26 06:11:34;;;;;;;16.98;7.85;;;7.80;99.90;;;;;;5033045;28;20037;-66
2023/09/26 06:14:00;;;;;;;15.45;8.30;;;7.80;99.90;;;;;;5048381;28;20032;-66
2023/09/26 06:16:25;;;;;;;14.95;8.00;;;7.90;99.90;;;;;;5047933;28;20036;-67
2023/09/26 06:18:52;;;;;;;14.90;8.20;;;7.90;99.90;;;;;;5047821;28;20039;-67
2023/09/26 06:21:18;;;;;;;12.07;7.45;;;8.00;99.90;;;;;;5044672;28;20060;-68
2023/09/26 06:23:44;;;;;;;15.23;8.32;;;8.00;99.90;;;;;;5048804;28;20385;-66
2023/09/26 06:26:09;;;;;;;16.15;8.05;;;8.10;99.90;;;;;;5040415;28;20021;-68
2023/09/26 06:28:35;;;;;;;14.98;8.68;;;8.10;99.90;;;;;;5046324;28;20032;-68
2023/09/26 06:31:08;;;;;;;17.45;8.75;;;8.10;99.90;;;;;;5044528;28;20028;-67
2023/09/26 06:33:35;;;;;;;16.13;9.00;;;8.10;99.90;;;;;;5050988;28;20049;-67
2023/09/26 06:36:01;;;;;;;16.63;8.98;;;8.10;99.90;;;;;;5043961;28;20032;-67
2023/09/26 06:38:28;;;;;;;16.60;9.32;;;8.20;99.90;;;;;;5045956;28;20044;-69
2023/09/26 06:41:05;;;;;;;18.58;9.55;;;8.30;99.90;;;;;;5042668;28;20040;-69
2023/09/26 06:43:31;;;;;;;17.52;9.25;;;8.40;99.90;;;;;;5040376;28;20036;-68
2023/09/26 06:45:56;;;;;;;16.13;8.80;;;8.50;99.90;;;;;;5039296;28;21225;-68
2023/09/26 06:48:22;;;;;;;16.58;9.00;;;8.60;99.90;;;;;;5046180;28;21166;-68
2023/09/26 06:50:48;;;;;;;20.73;10.07;;;8.70;99.90;;;;;;5043977;28;20171;-68
2023/09/26 06:53:13;;;;;;;19.33;10.32;;;8.80;99.90;;;;;;5042696;28;20108;-68
2023/09/26 06:55:39;;;;;;;25.40;11.35;;;8.90;99.90;;;;;;5041829;28;20028;-68
2023/09/26 06:58:08;;;;;;;20.13;11.25;;;9.00;99.90;;;;;;5042020;28;20033;-68
2023/09/26 07:00:40;;;;;;;22.95;11.73;;;9.20;99.90;;;;;;5041071;28;20082;-68
2023/09/26 07:03:06;;;;;;;24.55;12.90;;;9.30;99.90;;;;;;5047975;28;20500;-68
2023/09/26 07:05:32;;;;;;;27.27;12.95;;;9.40;99.90;;;;;;5038316;28;20044;-68
2023/09/26 07:07:57;;;;;;;30.02;13.18;;;9.60;99.90;;;;;;5042084;28;20087;-68
2023/09/26 07:10:24;;;;;;;25.48;12.75;;;9.70;99.90;;;;;;5041917;28;20041;-69
2023/09/26 07:12:51;;;;;;;25.08;13.05;;;9.70;99.90;;;;;;5044018;28;20036;-68
2023/09/26 07:15:18;;;;;;;22.95;12.30;;;9.90;99.90;;;;;;5048214;28;20073;-68
2023/09/26 07:17:44;;;;;;;24.95;13.63;;;10.00;99.90;;;;;;5042933;28;20037;-68
2023/09/26 07:20:13;;;;;;;24.20;12.75;;;10.20;99.90;;;;;;5043449;28;20051;-68
2023/09/26 07:22:40;;;;;;;27.60;12.70;;;10.30;99.90;;;;;;5047859;28;20106;-68
2023/09/26 07:25:07;;;;;;;25.02;12.55;;;10.40;99.90;;;;;;5040836;28;20033;-69
2023/09/26 07:27:32;;;;;;;24.13;13.63;;;10.60;99.90;;;;;;5043427;28;20712;-67
2023/09/26 07:29:58;;;;;;;22.77;12.52;;;10.70;99.90;;;;;;5048175;28;20040;-67
2023/09/26 07:32:24;;;;;;;25.75;13.70;;;10.80;99.90;;;;;;5060825;28;20461;-67
2023/09/26 07:34:49;;;;;;;23.73;12.93;;;10.90;99.90;;;;;;5071677;28;20372;-67
2023/09/26 07:37:15;;;;;;;24.45;13.55;;;11.10;99.90;;;;;;5036081;28;20593;-68
2023/09/26 07:39:46;;;;;;;27.90;14.57;;;11.40;99.90;;;;;;5047773;28;20808;-68
2023/09/26 07:42:12;;;;;;;27.13;14.23;;;11.50;99.90;;;;;;5033431;28;20588;-70
2023/09/26 07:44:38;;;;;;;25.58;14.38;;;11.80;99.90;;;;;;5031956;28;20037;-68
2023/09/26 07:47:04;;;;;;;24.33;14.45;;;12.00;99.90;;;;;;5056835;28;20032;-68
2023/09/26 07:49:30;;;;;;;31.88;13.63;;;12.10;99.90;;;;;;5055805;28;20071;-68
2023/09/26 07:51:56;;;;;;;24.15;13.77;;;12.30;99.90;;;;;;5045572;28;20057;-68
2023/09/26 07:54:22;;;;;;;28.88;14.60;;;12.50;99.90;;;;;;5044607;28;20203;-69
2023/09/26 07:56:48;;;;;;;28.98;14.52;;;12.70;99.90;;;;;;5046668;28;20631;-68
2023/09/26 07:59:13;;;;;;;24.80;14.18;;;12.90;99.90;;;;;;5041486;28;20060;-68
2023/09/26 08:01:39;;;;;;;24.45;14.38;;;13.10;99.90;;;;;;5046753;28;20029;-69
2023/09/26 08:04:04;;;;;;;24.92;13.85;;;13.30;99.90;;;;;;5045355;28;20079;-68
2023/09/26 08:06:31;;;;;;;29.50;15.25;;;13.40;99.90;;;;;;5046509;28;20618;-69
2023/09/26 08:08:57;;;;;;;25.08;14.82;;;13.60;99.90;;;;;;5058783;28;20032;-69
2023/09/26 08:11:27;;;;;;;24.85;14.38;;;13.90;99.90;;;;;;5047611;28;20040;-69
2023/09/26 08:13:54;;;;;;;28.85;14.13;;;14.10;99.90;;;;;;5035309;28;20421;-69
2023/09/26 08:16:20;;;;;;;25.00;13.20;;;14.30;99.90;;;;;;5030211;28;20113;-69
2023/09/26 08:18:46;;;;;;;24.42;13.57;;;14.60;99.90;;;;;;5031176;28;20374;-69
2023/09/26 08:21:11;;;;;;;19.98;11.90;;;14.90;99.90;;;;;;5046074;28;20131;-68
2023/09/26 08:23:37;;;;;;;24.92;12.43;;;15.10;99.90;;;;;;5058996;28;20126;-68
2023/09/26 08:26:05;;;;;;;22.85;12.35;;;15.30;99.90;;;;;;5050265;28;20119;-69
2023/09/26 08:28:31;;;;;;;21.40;11.05;;;15.50;99.90;;;;;;5050834;28;20051;-70
2023/09/26 08:31:07;;;;;;;20.45;12.23;;;15.70;99.90;;;;;;5050477;28;20033;-70
2023/09/26 08:33:33;;;;;;;20.77;12.65;;;15.90;99.90;;;;;;5041546;28;20048;-70
2023/09/26 08:35:58;;;;;;;26.48;12.18;;;16.10;99.90;;;;;;5050365;28;20032;-71
2023/09/26 08:38:24;;;;;;;20.85;11.48;;;16.30;99.90;;;;;;5049981;28;20423;-69
2023/09/26 08:40:53;;;;;;;26.38;11.60;;;16.50;99.90;;;;;;5049988;28;20521;-69
2023/09/26 08:43:26;;;;;;;24.88;12.07;;;16.70;99.90;;;;;;5049764;28;20100;-70
2023/09/26 08:45:52;;;;;;;20.15;12.30;;;16.90;99.90;;;;;;5050729;28;20028;-69
2023/09/26 08:48:18;;;;;;;22.33;12.30;;;17.20;99.90;;;;;;5049358;28;20021;-70
2023/09/26 08:50:44;;;;;;;22.60;12.35;;;17.30;99.90;;;;;;5048975;28;20052;-70
2023/09/26 08:53:10;;;;;;;19.42;12.07;;;17.40;99.90;;;;;;5029775;28;20496;-70
2023/09/26 08:55:38;;;;;;;22.00;12.18;;;17.50;99.90;;;;;;5030724;28;20025;-69
2023/09/26 08:58:05;;;;;;;21.63;10.75;;;17.70;99.90;;;;;;5029816;28;20416;-69
2023/09/26 09:00:31;;;;;;;20.58;11.35;;;17.80;99.90;;;;;;5030571;28;20035;-70
2023/09/26 09:02:57;;;;;;;17.17;10.93;;;18.10;99.90;;;;;;5030415;28;20075;-70
2023/09/26 09:05:23;;;;;;;21.13;11.57;;;18.20;99.90;;;;;;5032152;28;20076;-70
2023/09/26 09:07:49;;;;;;;23.73;11.38;;;18.30;99.90;;;;;;5070268;28;20024;-69
2023/09/26 09:10:18;;;;;;;15.45;9.95;;;18.30;99.90;;;;;;5069393;28;20035;-70
2023/09/26 09:12:50;;;;;;;17.50;10.60;;;18.50;99.90;;;;;;5070268;28;20036;-70
2023/09/26 09:15:20;;;;;;;17.10;10.93;;;18.60;99.90;;;;;;5069539;28;20113;-70
2023/09/26 09:17:46;;;;;;;20.35;11.85;;;18.70;99.90;;;;;;5070237;28;20029;-69
2023/09/26 09:20:16;;;;;;;26.35;12.77;;;18.90;99.90;;;;;;5045166;28;20082;-70
2023/09/26 09:22:46;;;;;;;18.45;10.93;;;18.80;99.90;;;;;;5044794;28;20040;-70
2023/09/26 09:25:12;;;;;;;18.63;11.68;;;18.90;99.90;;;;;;5047695;28;20043;-70
2023/09/26 09:27:43;;;;;;;22.13;11.20;;;18.90;99.90;;;;;;5046513;28;20040;-69
2023/09/26 09:30:19;;;;;;;23.73;12.32;;;19.10;99.90;;;;;;5040575;28;20033;-69
2023/09/26 09:32:46;;;;;;;23.30;11.40;;;19.10;99.90;;;;;;5032671;28;20033;-68
2023/09/26 09:35:13;;;;;;;18.42;11.98;;;19.10;99.90;;;;;;5072635;28;20021;-68
2023/09/26 09:37:47;;;;;;;18.92;11.32;;;19.20;99.90;;;;;;5043352;28;20122;-69
2023/09/26 09:40:20;;;;;;;20.75;12.13;;;19.30;99.90;;;;;;5047570;28;20033;-69
2023/09/26 09:42:50;;;;;;;17.55;10.98;;;19.40;99.90;;;;;;5048219;28;20119;-68
2023/09/26 09:45:19;;;;;;;17.25;11.15;;;19.30;99.90;;;;;;5042502;28;20028;-71
2023/09/26 09:47:47;;;;;;;21.15;11.45;;;19.40;99.90;;;;;;5040348;28;20037;-71
2023/09/26 09:50:14;;;;;;;16.13;10.40;;;19.50;99.90;;;;;;5043063;28;20104;-70
2023/09/26 09:52:46;;;;;;;17.23;10.75;;;19.60;99.90;;;;;;5041545;28;20120;-71
2023/09/26 09:55:27;;;;;;;13.98;9.35;;;19.70;99.90;;;;;;5040320;28;20079;-71
2023/09/26 09:57:56;;;;;;;15.23;9.15;;;19.80;99.90;;;;;;5044163;28;20041;-70
2023/09/26 10:00:24;;;;;;;17.08;10.52;;;19.90;99.90;;;;;;5043557;28;20025;-70
2023/09/26 10:02:51;;;;;;;17.67;10.85;;;20.00;99.90;;;;;;5044094;28;20031;-69
2023/09/26 10:05:19;;;;;;;16.77;10.63;;;20.00;99.90;;;;;;5057626;28;20040;-68
2023/09/26 10:07:47;;;;;;;21.15;10.57;;;20.10;99.90;;;;;;5054715;28;20615;-70
2023/09/26 10:10:15;;;;;;;15.18;8.75;;;20.20;99.90;;;;;;5090836;28;20111;-70
2023/09/26 10:12:41;;;;;;;23.73;10.57;;;20.30;99.90;;;;;;5055649;28;20086;-69
2023/09/26 10:15:11;;;;;;;14.07;9.20;;;20.40;99.90;;;;;;5049223;28;20053;-71
2023/09/26 10:17:40;;;;;;;14.70;8.73;;;20.40;99.90;;;;;;5045243;28;20341;-71
2023/09/26 10:20:10;;;;;;;16.73;7.68;;;20.60;99.90;;;;;;5041531;28;20056;-71
2023/09/26 10:22:41;;;;;;;11.57;7.50;;;20.80;99.90;;;;;;5044497;28;20037;-69
2023/09/26 10:25:08;;;;;;;13.68;8.07;;;20.90;99.90;;;;;;5040816;28;20032;-69
2023/09/26 10:27:34;;;;;;;12.25;7.18;;;21.10;99.90;;;;;;5047218;28;20350;-70
2023/09/26 10:30:03;;;;;;;11.32;6.55;;;21.10;99.90;;;;;;5045987;28;20028;-70
2023/09/26 10:32:35;;;;;;;13.48;8.38;;;21.10;99.90;;;;;;5038746;28;20077;-70
2023/09/26 10:35:13;;;;;;;13.60;7.90;;;21.10;99.90;;;;;;5040563;28;20028;-70
2023/09/26 10:37:44;;;;;;;11.63;7.32;;;21.30;99.90;;;;;;5045578;28;20029;-69
2023/09/26 10:40:17;;;;;;;15.10;8.02;;;21.50;99.90;;;;;;5041162;28;20033;-70
2023/09/26 10:42:45;;;;;;;11.07;7.03;;;21.50;99.90;;;;;;5043336;28;20041;-66
2023/09/26 10:45:11;;;;;;;10.52;5.60;;;21.50;99.90;;;;;;5040116;28;20036;-68
2023/09/26 10:47:40;;;;;;;9.25;5.50;;;21.70;99.90;;;;;;5040110;28;20041;-70
2023/09/26 10:50:09;;;;;;;9.00;5.30;;;21.80;99.90;;;;;;5043742;28;20056;-68
2023/09/26 10:52:35;;;;;;;8.77;5.50;;;22.10;99.90;;;;;;5037753;28;20114;-70
2023/09/26 10:55:02;;;;;;;8.27;4.95;;;22.40;99.90;;;;;;5045426;28;20032;-71
2023/09/26 10:57:28;;;;;;;7.97;5.32;;;22.40;99.90;;;;;;5047345;28;20028;-70
2023/09/26 10:59:54;;;;;;;6.28;4.72;;;22.60;99.90;;;;;;5043024;28;20082;-70
2023/09/26 11:02:22;;;;;;;9.02;4.72;;;22.80;99.90;;;;;;5047341;28;20614;-70
2023/09/26 11:04:47;;;;;;;6.97;4.38;;;22.90;99.90;;;;;;5041055;28;20114;-70
2023/09/26 11:07:15;;;;;;;7.28;4.50;;;22.90;99.90;;;;;;5045862;28;20037;-70
2023/09/26 11:09:42;;;;;;;6.90;4.72;;;22.90;99.90;;;;;;5038856;28;20044;-70
2023/09/26 11:12:08;;;;;;;8.27;5.63;;;23.10;99.90;;;;;;5048337;28;20051;-68
2023/09/26 11:14:34;;;;;;;7.88;6.13;;;23.20;99.90;;;;;;5043707;28;20025;-70
2023/09/26 11:17:00;;;;;;;10.82;6.40;;;23.20;99.90;;;;;;5059096;28;20021;-70
2023/09/26 11:19:27;;;;;;;10.68;6.13;;;23.10;99.90;;;;;;5046578;28;20575;-69
2023/09/26 11:21:54;;;;;;;8.93;4.70;;;23.00;99.90;;;;;;5061472;28;20127;-70
2023/09/26 11:24:29;;;;;;;6.68;4.40;;;23.00;99.90;;;;;;5062226;28;20031;-69
2023/09/26 11:27:01;;;;;;;4.63;3.67;;;23.30;99.90;;;;;;5048313;28;20086;-70
2023/09/26 11:29:27;;;;;;;6.57;4.35;;;23.70;99.90;;;;;;5039738;28;20025;-70
2023/09/26 11:31:55;;;;;;;6.30;4.82;;;23.90;99.90;;;;;;5042615;28;20045;-69
2023/09/26 11:34:21;;;;;;;7.78;4.47;;;23.60;99.90;;;;;;5040125;28;20489;-70
2023/09/26 11:36:51;;;;;;;8.15;4.50;;;23.60;99.90;;;;;;5042633;28;20783;-70
2023/09/26 11:39:22;;;;;;;6.65;4.38;;;24.00;99.90;;;;;;5036858;28;20044;-72
2023/09/26 11:42:07;;;;;;;7.68;4.05;;;24.20;99.90;;;;;;5041585;28;20114;-70
2023/09/26 11:44:33;;;;;;;5.88;4.90;;;24.10;99.90;;;;;;5042351;28;20106;-69
2023/09/26 11:46:59;;;;;;;6.75;4.35;;;24.10;99.90;;;;;;5040789;28;20021;-70
2023/09/26 11:49:26;;;;;;;7.07;4.30;;;24.00;99.90;;;;;;5038658;28;20063;-68
2023/09/26 11:51:53;;;;;;;5.82;4.05;;;24.20;99.90;;;;;;5041282;28;20057;-68
2023/09/26 11:54:18;;;;;;;12.82;4.60;;;24.20;99.90;;;;;;5044397;28;21160;-67
2023/09/26 11:56:45;;;;;;;8.30;3.60;;;24.40;99.90;;;;;;5041706;28;20144;-69
2023/09/26 11:59:12;;;;;;;5.63;3.67;;;24.60;99.90;;;;;;5037359;28;20021;-70
2023/09/26 12:01:41;;;;;;;6.03;3.88;;;24.90;99.90;;;;;;5042963;28;20064;-70
2023/09/26 12:04:10;;;;;;;7.88;3.80;;;25.20;99.90;;;;;;5035857;28;20032;-70
2023/09/26 12:06:36;;;;;;;5.07;4.32;;;25.00;99.90;;;;;;5047161;28;20110;-69
2023/09/26 12:09:05;;;;;;;6.53;4.68;;;24.80;99.90;;;;;;5047554;28;20428;-70
2023/09/26 12:11:31;;;;;;;8.48;4.68;;;24.50;99.90;;;;;;5057740;28;20040;-70
2023/09/26 12:13:57;;;;;;;6.82;4.93;;;24.20;99.90;;;;;;5045728;28;20040;-70
2023/09/26 12:16:22;;;;;;;6.30;4.35;;;24.20;99.90;;;;;;5069301;28;20028;-70
2023/09/26 12:18:49;;;;;;;8.07;3.92;;;24.20;99.90;;;;;;5063899;28;20051;-69
2023/09/26 12:21:15;;;;;;;9.77;4.68;;;24.40;99.90;;;;;;5058705;28;20035;-69
2023/09/26 12:23:41;;;;;;;6.47;4.90;;;24.60;99.90;;;;;;5033778;28;20530;-69
2023/09/26 12:26:07;;;;;;;8.27;4.60;;;24.50;99.90;;;;;;5031054;28;20103;-68
2023/09/26 12:28:33;;;;;;;6.20;4.47;;;24.50;99.90;;;;;;5030341;28;20087;-68
2023/09/26 12:30:58;;;;;;;11.70;4.63;;;24.40;99.90;;;;;;5059249;28;20032;-68
2023/09/26 12:33:24;;;;;;;10.48;5.00;;;24.50;99.90;;;;;;5036582;28;20076;-68
2023/09/26 12:35:50;;;;;;;6.85;4.70;;;24.30;99.90;;;;;;5030890;28;20112;-68
2023/09/26 12:38:17;;;;;;;8.50;4.50;;;23.90;99.90;;;;;;5030208;28;20136;-67